Terminal Aerodrome Forecast
Issued by NWS Tuscon, AZ

Home | Current Version | Previous Version | Text Only | Print | Product List | Glossary On
Versions: 1 2 3 4 5 6 7 8 9 10 11 12 13
000
FTUS45 KTWC 272320
TAFTUS
TAF
KTUS 272320Z 2800/2824 26012G18KT P6SM SCT090 BKN200
     FM280100 29009KT P6SM SCT080 BKN150
     FM280500 16008KT P6SM FEW080 BKN150
     FM281800 31009KT P6SM SCT070 BKN150
     FM282300 19010KT P6SM SCT080 BKN150=

USA.gov is the U.S. government's official web portal to all federal, state and local government web resources and services.